Storm Events Database

Event Details

Event Thunderstorm Wind
Magnitude 55 kts.
State TENNESSEE
County/Area LAWRENCE
WFO OHX
Report Source Amateur Radio
NCDC Data Source CSV
Begin Date 2007-04-03 20:40:00.0 CST-6
Begin Location 0N LEOMA
Begin Lat/Lon 35.17/-87.35
End Date 2007-04-03 20:45:00.0 CST-6
End Location 0N LIBERTY GROVE
End Lat/Lon 35.03/-87.38
Deaths Direct/Indirect 0/0 (fatality details below, when available...)
Injuries Direct/Indirect 0/0
Property Damage 1.00K
Crop Damage 0.00K
Episode Narrative Thunderstorms fired up ahead of a strong cold front on April 3, 2007. There were numerous reports of hail and wind damage. One tornado occurred in Cumberland County at 0916 PM CDT. Snow flurries were reported on Good Friday, April 6, and record cold morning low temperatures were common on Easter Sunday morning with readings in the teens and 20s across Middle Tennessee. Nashville Airport had a record low of 23 degrees Easter Sunday morning. A late season hard freeze hit the mid state. Lows temperatures across Middle Tennessee Friday morning were: 18-29 degrees, Saturday morning lows were 13-27 degrees, and Sunday morning lows were from 17-27 degrees. There were numerous damage to the berries, fruit trees, and wheat crops across Middle Tennessee amounting to about $100,000.
Event Narrative Amateur radio report of numerous trees down from Leoma to the Alabama state line in south central Lawrence County.


     ‚Äč



All events for this episode:

Location County/Zone St. Date Time T.Z. Type Mag Dth Inj PrD CrD
Totals: 0 0 183.10K 0.00K
COALMONT GRUNDY CO. TN 04/03/2007 14:40 CST-6 Hail 1.75 in. 0 0 0.00K 0.00K
ALTAMONT GRUNDY CO. TN 04/03/2007 14:50 CST-6 Hail 2.50 in. 0 0 2.00K 0.00K
ALTAMONT GRUNDY CO. TN 04/03/2007 14:58 CST-6 Hail 0.75 in. 0 0 0.00K 0.00K
ALTAMONT GRUNDY CO. TN 04/03/2007 15:00 CST-6 Hail 1.75 in. 0 0 0.00K 0.00K
CROSSVILLE CUMBERLAND CO. TN 04/03/2007 16:30 CST-6 Hail 0.88 in. 0 0 0.00K 0.00K
BUMPUS MILLS STEWART CO. TN 04/03/2007 18:29 CST-6 Hail 1.75 in. 0 0 0.00K 0.00K
SPRINGFIELD ROBERTSON CO. TN 04/03/2007 19:21 CST-6 Hail 1.00 in. 0 0 0.00K 0.00K
CHARLOTTE DICKSON CO. TN 04/03/2007 19:22 CST-6 Hail 0.88 in. 0 0 0.00K 0.00K
CUMBERLAND FURNACE DICKSON CO. TN 04/03/2007 19:23 CST-6 Thunderstorm Wind 50 kts. EG 0 0 0.20K 0.00K
SYLVIA DICKSON CO. TN 04/03/2007 19:25 CST-6 Thunderstorm Wind 50 kts. EG 0 0 0.20K 0.00K
VANLEER DICKSON CO. TN 04/03/2007 19:30 CST-6 Thunderstorm Wind 50 kts. EG 0 0 25.00K 0.00K
WHITE HOUSE ROBERTSON CO. TN 04/03/2007 19:30 CST-6 Hail 0.75 in. 0 0 0.00K 0.00K
SPARTA WHITE CO. TN 04/03/2007 19:42 CST-6 Hail 0.75 in. 0 0 0.00K 0.00K
LYLES HICKMAN CO. TN 04/03/2007 19:50 CST-6 Hail 1.00 in. 0 0 0.00K 0.00K
LINDEN PERRY CO. TN 04/03/2007 19:55 CST-6 Thunderstorm Wind 50 kts. EG 0 0 0.10K 0.00K
CENTERVILLE HICKMAN CO. TN 04/03/2007 20:00 CST-6 Thunderstorm Wind 50 kts. EG 0 0 3.00K 0.00K
CENTERVILLE HICKMAN CO. TN 04/03/2007 20:00 CST-6 Thunderstorm Wind 50 kts. EG 0 0 0.10K 0.00K
CENTERVILLE HICKMAN CO. TN 04/03/2007 20:00 CST-6 Thunderstorm Wind 50 kts. EG 0 0 0.10K 0.00K
NASHVILLE DAVIDSON CO. TN 04/03/2007 20:00 CST-6 Hail 0.88 in. 0 0 0.00K 0.00K
BELLEVUE DAVIDSON CO. TN 04/03/2007 20:02 CST-6 Hail 0.75 in. 0 0 0.00K 0.00K
LEBANON WILSON CO. TN 04/03/2007 20:05 CST-6 Thunderstorm Wind 50 kts. EG 0 0 3.00K 0.00K
FRANKLIN WILLIAMSON CO. TN 04/03/2007 20:07 CST-6 Hail 0.88 in. 0 0 0.00K 0.00K
FRANKLIN WILLIAMSON CO. TN 04/03/2007 20:07 CST-6 Thunderstorm Wind 50 kts. EG 0 0 0.10K 0.00K
ANTIOCH DAVIDSON CO. TN 04/03/2007 20:10 CST-6 Hail 0.88 in. 0 0 0.00K 0.00K
NEWTON CUMBERLAND CO. TN 04/03/2007 20:16 CST-6 Tornado EF1 0 0 145.00K 0.00K
CLARKRANGE FENTRESS CO. TN 04/03/2007 20:20 CST-6 Thunderstorm Wind 55 kts. EG 0 0 0.10K 0.00K
CRAB ORCHARD CUMBERLAND CO. TN 04/03/2007 20:20 CST-6 Hail 1.75 in. 0 0 0.00K 0.00K
CROSSVILLE CUMBERLAND CO. TN 04/03/2007 20:20 CST-6 Hail 1.00 in. 0 0 2.00K 0.00K
LEBANON WILSON CO. TN 04/03/2007 20:20 CST-6 Thunderstorm Wind 50 kts. EG 0 0 0.10K 0.00K
COLUMBIA MAURY CO. TN 04/03/2007 20:25 CST-6 Thunderstorm Wind 55 kts. EG 0 0 0.50K 0.00K
CROSSVILLE CUMBERLAND CO. TN 04/03/2007 20:25 CST-6 Hail 1.75 in. 0 0 0.00K 0.00K
LEBANON WILSON CO. TN 04/03/2007 20:25 CST-6 Thunderstorm Wind 50 kts. EG 0 0 0.50K 0.00K
COLUMBIA MAURY CO. TN 04/03/2007 20:30 CST-6 Hail 0.75 in. 0 0 0.00K 0.00K
MURFREESBORO RUTHERFORD CO. TN 04/03/2007 20:37 CST-6 Hail 0.75 in. 0 0 0.00K 0.00K
LEOMA LAWRENCE CO. TN 04/03/2007 20:40 CST-6 Thunderstorm Wind 55 kts. EG 0 0 1.00K 0.00K
MURFREESBORO RUTHERFORD CO. TN 04/03/2007 20:45 CST-6 Hail 1.00 in. 0 0 0.00K 0.00K
LEWISBURG MARSHALL CO. TN 04/03/2007 20:50 CST-6 Hail 0.75 in. 0 0 0.00K 0.00K
BEECH GROVE COFFEE CO. TN 04/03/2007 20:58 CST-6 Hail 1.75 in. 0 0 0.00K 0.00K
LANTANA CUMBERLAND CO. TN 04/03/2007 21:25 CST-6 Hail 1.75 in. 0 0 0.00K 0.00K
COOKEVILLE PUTNAM CO. TN 04/03/2007 21:30 CST-6 Hail 0.88 in. 0 0 0.00K 0.00K
TULLAHOMA COFFEE CO. TN 04/03/2007 21:50 CST-6 Thunderstorm Wind 50 kts. EG 0 0 0.10K 0.00K
Totals: 0 0 183.10K 0.00K